sensor_id;sensor_type;location;lat;lon;timestamp;temperature;humidity
7455;HTU21D;3769;51.208;4.454;2023-05-07T00:04:06;15.6;98.6
7455;HTU21D;3769;51.208;4.454;2023-05-07T00:09:06;15.6;98.6
7455;HTU21D;3769;51.208;4.454;2023-05-07T00:14:06;15.6;98.6
7455;HTU21D;3769;51.208;4.454;2023-05-07T00:19:06;15.8;98.6
7455;HTU21D;3769;51.208;4.454;2023-05-07T00:24:06;15.9;98.6
7455;HTU21D;3769;51.208;4.454;2023-05-07T00:29:06;15.9;98.6
7455;HTU21D;3769;51.208;4.454;2023-05-07T00:34:06;15.9;98.6
7455;HTU21D;3769;51.208;4.454;2023-05-07T00:39:06;15.8;98.6
7455;HTU21D;3769;51.208;4.454;2023-05-07T00:44:06;15.9;98.6
7455;HTU21D;3769;51.208;4.454;2023-05-07T00:49:06;15.7;98.6
7455;HTU21D;3769;51.208;4.454;2023-05-07T00:54:06;15.6;98.6
7455;HTU21D;3769;51.208;4.454;2023-05-07T00:59:06;15.6;98.6
7455;HTU21D;3769;51.208;4.454;2023-05-07T01:04:06;15.6;98.6
7455;HTU21D;3769;51.208;4.454;2023-05-07T01:09:06;15.5;98.6
7455;HTU21D;3769;51.208;4.454;2023-05-07T01:14:06;15.4;98.6
7455;HTU21D;3769;51.208;4.454;2023-05-07T01:19:06;15.4;98.6
7455;HTU21D;3769;51.208;4.454;2023-05-07T01:24:06;15.4;98.6
7455;HTU21D;3769;51.208;4.454;2023-05-07T01:29:06;15.4;98.6
7455;HTU21D;3769;51.208;4.454;2023-05-07T01:34:06;15.3;98.6
7455;HTU21D;3769;51.208;4.454;2023-05-07T01:39:06;15.3;98.5
7455;HTU21D;3769;51.208;4.454;2023-05-07T01:44:06;15.2;98.5
7455;HTU21D;3769;51.208;4.454;2023-05-07T01:49:06;15.1;98.5
7455;HTU21D;3769;51.208;4.454;2023-05-07T01:54:06;15.1;98.5
7455;HTU21D;3769;51.208;4.454;2023-05-07T01:59:06;15.1;98.5
7455;HTU21D;3769;51.208;4.454;2023-05-07T02:04:06;15;98.5
7455;HTU21D;3769;51.208;4.454;2023-05-07T02:09:06;14.9;98.5
7455;HTU21D;3769;51.208;4.454;2023-05-07T02:14:06;14.9;98.5
7455;HTU21D;3769;51.208;4.454;2023-05-07T02:19:06;14.8;98.5
7455;HTU21D;3769;51.208;4.454;2023-05-07T02:24:06;14.9;98.5
7455;HTU21D;3769;51.208;4.454;2023-05-07T02:29:06;14.9;98.5
7455;HTU21D;3769;51.208;4.454;2023-05-07T02:34:06;15;98.5
7455;HTU21D;3769;51.208;4.454;2023-05-07T02:39:06;14.9;98.5
7455;HTU21D;3769;51.208;4.454;2023-05-07T02:44:06;15;98.5
7455;HTU21D;3769;51.208;4.454;2023-05-07T02:49:06;15.1;98.5
7455;HTU21D;3769;51.208;4.454;2023-05-07T02:54:06;15.1;98.5
7455;HTU21D;3769;51.208;4.454;2023-05-07T02:59:06;15.1;98.5
7455;HTU21D;3769;51.208;4.454;2023-05-07T03:04:06;15.1;98.5
7455;HTU21D;3769;51.208;4.454;2023-05-07T03:09:06;15.1;98.5
7455;HTU21D;3769;51.208;4.454;2023-05-07T03:14:06;15.1;98.5
7455;HTU21D;3769;51.208;4.454;2023-05-07T03:19:06;15.2;98.5
7455;HTU21D;3769;51.208;4.454;2023-05-07T03:24:06;15.2;98.5
7455;HTU21D;3769;51.208;4.454;2023-05-07T03:29:06;15.1;98.5
7455;HTU21D;3769;51.208;4.454;2023-05-07T03:34:06;15.1;98.5
7455;HTU21D;3769;51.208;4.454;2023-05-07T03:39:06;15.1;98.5
7455;HTU21D;3769;51.208;4.454;2023-05-07T03:44:06;15.1;98.5
7455;HTU21D;3769;51.208;4.454;2023-05-07T03:49:06;15.1;98.5
7455;HTU21D;3769;51.208;4.454;2023-05-07T03:54:06;15.1;98.5
7455;HTU21D;3769;51.208;4.454;2023-05-07T03:59:06;15;98.5
7455;HTU21D;3769;51.208;4.454;2023-05-07T04:04:06;15.1;98.5
7455;HTU21D;3769;51.208;4.454;2023-05-07T04:09:06;15;98.5
7455;HTU21D;3769;51.208;4.454;2023-05-07T04:14:06;15;98.5
7455;HTU21D;3769;51.208;4.454;2023-05-07T04:19:06;15;98.5
7455;HTU21D;3769;51.208;4.454;2023-05-07T04:24:06;15;98.5
7455;HTU21D;3769;51.208;4.454;2023-05-07T04:29:06;15.1;98.5
7455;HTU21D;3769;51.208;4.454;2023-05-07T04:34:06;15;98.5
7455;HTU21D;3769;51.208;4.454;2023-05-07T04:39:06;15;98.5
7455;HTU21D;3769;51.208;4.454;2023-05-07T04:44:06;15.1;98.5
7455;HTU21D;3769;51.208;4.454;2023-05-07T04:49:06;15.2;98.5
7455;HTU21D;3769;51.208;4.454;2023-05-07T04:54:06;15.1;98.5
7455;HTU21D;3769;51.208;4.454;2023-05-07T04:59:06;15.2;98.5
7455;HTU21D;3769;51.208;4.454;2023-05-07T05:04:06;15.2;98.5
7455;HTU21D;3769;51.208;4.454;2023-05-07T05:09:06;15.3;98.5
7455;HTU21D;3769;51.208;4.454;2023-05-07T05:14:06;15.2;98.5
7455;HTU21D;3769;51.208;4.454;2023-05-07T05:19:06;15.3;98.5
7455;HTU21D;3769;51.208;4.454;2023-05-07T05:24:06;15.3;98.6
7455;HTU21D;3769;51.208;4.454;2023-05-07T05:29:06;15.3;98.5
7455;HTU21D;3769;51.208;4.454;2023-05-07T05:34:06;15.3;98.5
7455;HTU21D;3769;51.208;4.454;2023-05-07T05:39:06;15.4;98.6
7455;HTU21D;3769;51.208;4.454;2023-05-07T05:44:06;15.4;98.6
7455;HTU21D;3769;51.208;4.454;2023-05-07T05:49:06;15.5;98.6
7455;HTU21D;3769;51.208;4.454;2023-05-07T05:54:06;15.5;98.6
7455;HTU21D;3769;51.208;4.454;2023-05-07T05:59:06;15.5;98.6
7455;HTU21D;3769;51.208;4.454;2023-05-07T06:04:06;15.5;98.6
7455;HTU21D;3769;51.208;4.454;2023-05-07T06:09:06;15.5;98.6
7455;HTU21D;3769;51.208;4.454;2023-05-07T06:14:06;15.7;98.6
7455;HTU21D;3769;51.208;4.454;2023-05-07T06:19:06;15.7;98.6
7455;HTU21D;3769;51.208;4.454;2023-05-07T06:24:06;15.7;98.6
7455;HTU21D;3769;51.208;4.454;2023-05-07T06:29:06;15.7;98.6
7455;HTU21D;3769;51.208;4.454;2023-05-07T06:34:06;15.8;98.6
7455;HTU21D;3769;51.208;4.454;2023-05-07T06:39:06;15.9;98.6
7455;HTU21D;3769;51.208;4.454;2023-05-07T06:44:06;16;98.7
7455;HTU21D;3769;51.208;4.454;2023-05-07T06:49:06;16.2;98.7
7455;HTU21D;3769;51.208;4.454;2023-05-07T06:54:06;16.2;98.7
7455;HTU21D;3769;51.208;4.454;2023-05-07T06:59:06;16.3;98.7
7455;HTU21D;3769;51.208;4.454;2023-05-07T07:04:06;16.1;98.7
7455;HTU21D;3769;51.208;4.454;2023-05-07T07:09:06;16;98.7
7455;HTU21D;3769;51.208;4.454;2023-05-07T07:14:06;15.9;98.6
7455;HTU21D;3769;51.208;4.454;2023-05-07T07:19:06;16.1;98.7
7455;HTU21D;3769;51.208;4.454;2023-05-07T07:24:06;16.3;98.7
7455;HTU21D;3769;51.208;4.454;2023-05-07T07:29:06;16.6;98.7
7455;HTU21D;3769;51.208;4.454;2023-05-07T07:34:06;16.6;98.7
7455;HTU21D;3769;51.208;4.454;2023-05-07T07:39:06;16.9;98.8
7455;HTU21D;3769;51.208;4.454;2023-05-07T07:44:06;17;98.8
7455;HTU21D;3769;51.208;4.454;2023-05-07T07:49:06;16.9;98.8
7455;HTU21D;3769;51.208;4.454;2023-05-07T07:54:06;17.1;98.8
7455;HTU21D;3769;51.208;4.454;2023-05-07T07:59:06;17.1;98.8
7455;HTU21D;3769;51.208;4.454;2023-05-07T08:04:06;17.1;98.8
7455;HTU21D;3769;51.208;4.454;2023-05-07T08:09:06;17.3;98.8
7455;HTU21D;3769;51.208;4.454;2023-05-07T08:14:06;17.3;98.8
7455;HTU21D;3769;51.208;4.454;2023-05-07T08:19:06;17.5;98.9
7455;HTU21D;3769;51.208;4.454;2023-05-07T08:24:06;17.4;98.9
7455;HTU21D;3769;51.208;4.454;2023-05-07T08:29:06;17.5;98.9
7455;HTU21D;3769;51.208;4.454;2023-05-07T08:34:06;17.3;98.8
7455;HTU21D;3769;51.208;4.454;2023-05-07T08:39:06;17.1;98.8
7455;HTU21D;3769;51.208;4.454;2023-05-07T08:44:06;17.2;98.8
7455;HTU21D;3769;51.208;4.454;2023-05-07T08:49:06;17.5;98.9
7455;HTU21D;3769;51.208;4.454;2023-05-07T08:54:06;17.6;98.9
7455;HTU21D;3769;51.208;4.454;2023-05-07T08:59:06;17.6;98.9
7455;HTU21D;3769;51.208;4.454;2023-05-07T09:04:06;17.7;98.9
7455;HTU21D;3769;51.208;4.454;2023-05-07T09:09:06;17.7;98.9
7455;HTU21D;3769;51.208;4.454;2023-05-07T09:14:06;17.9;98.9
7455;HTU21D;3769;51.208;4.454;2023-05-07T09:19:06;17.6;98.9
7455;HTU21D;3769;51.208;4.454;2023-05-07T09:24:06;17.7;98.9
7455;HTU21D;3769;51.208;4.454;2023-05-07T09:29:07;17.7;98.9
7455;HTU21D;3769;51.208;4.454;2023-05-07T09:34:06;17.7;98.9
7455;HTU21D;3769;51.208;4.454;2023-05-07T09:39:06;17.6;98.9
7455;HTU21D;3769;51.208;4.454;2023-05-07T09:44:06;17.6;98.9
7455;HTU21D;3769;51.208;4.454;2023-05-07T09:49:06;17.6;98.9
7455;HTU21D;3769;51.208;4.454;2023-05-07T09:54:06;17.5;98.9
7455;HTU21D;3769;51.208;4.454;2023-05-07T09:59:06;17.7;98.9
7455;HTU21D;3769;51.208;4.454;2023-05-07T10:04:06;17.6;98.9
7455;HTU21D;3769;51.208;4.454;2023-05-07T10:09:06;17.6;98.9
7455;HTU21D;3769;51.208;4.454;2023-05-07T10:14:06;17.5;98.9
7455;HTU21D;3769;51.208;4.454;2023-05-07T10:19:07;17.5;98.9
7455;HTU21D;3769;51.208;4.454;2023-05-07T10:24:10;17.2;98.8
7455;HTU21D;3769;51.208;4.454;2023-05-07T10:29:18;17.3;98.8
7455;HTU21D;3769;51.208;4.454;2023-05-07T10:34:07;17.3;98.8
7455;HTU21D;3769;51.208;4.454;2023-05-07T10:39:06;17.3;98.8
7455;HTU21D;3769;51.208;4.454;2023-05-07T10:44:06;17.1;98.8
7455;HTU21D;3769;51.208;4.454;2023-05-07T10:49:06;17;98.8
7455;HTU21D;3769;51.208;4.454;2023-05-07T10:54:18;16.9;98.8
7455;HTU21D;3769;51.208;4.454;2023-05-07T10:59:30;16.8;98.8
7455;HTU21D;3769;51.208;4.454;2023-05-07T11:04:14;16.9;98.8
7455;HTU21D;3769;51.208;4.454;2023-05-07T11:09:06;17.1;98.8
7455;HTU21D;3769;51.208;4.454;2023-05-07T11:14:06;17.2;98.8
7455;HTU21D;3769;51.208;4.454;2023-05-07T11:19:06;17;98.8
7455;HTU21D;3769;51.208;4.454;2023-05-07T11:24:07;17;98.8
7455;HTU21D;3769;51.208;4.454;2023-05-07T11:29:10;17.1;98.8
7455;HTU21D;3769;51.208;4.454;2023-05-07T11:34:06;17.2;98.8
7455;HTU21D;3769;51.208;4.454;2023-05-07T11:39:09;17.2;98.8
7455;HTU21D;3769;51.208;4.454;2023-05-07T11:44:06;17.3;98.8
7455;HTU21D;3769;51.208;4.454;2023-05-07T11:49:06;17.3;98.8
7455;HTU21D;3769;51.208;4.454;2023-05-07T11:54:06;17.3;98.8
7455;HTU21D;3769;51.208;4.454;2023-05-07T11:59:06;17.4;98.9
7455;HTU21D;3769;51.208;4.454;2023-05-07T12:04:06;17.5;98.9
7455;HTU21D;3769;51.208;4.454;2023-05-07T12:09:06;17.4;98.9
7455;HTU21D;3769;51.208;4.454;2023-05-07T12:14:06;17.2;98.8
7455;HTU21D;3769;51.208;4.454;2023-05-07T12:19:06;17.2;98.8
7455;HTU21D;3769;51.208;4.454;2023-05-07T12:24:07;17.4;98.9
7455;HTU21D;3769;51.208;4.454;2023-05-07T12:29:07;17.4;98.9
7455;HTU21D;3769;51.208;4.454;2023-05-07T12:34:06;17.5;98.9
7455;HTU21D;3769;51.208;4.454;2023-05-07T12:39:07;17.7;98.9
7455;HTU21D;3769;51.208;4.454;2023-05-07T12:44:06;17.6;98.9
7455;HTU21D;3769;51.208;4.454;2023-05-07T12:49:06;17.9;98.9
7455;HTU21D;3769;51.208;4.454;2023-05-07T12:54:06;17.9;98.9
7455;HTU21D;3769;51.208;4.454;2023-05-07T12:59:06;18.1;99
7455;HTU21D;3769;51.208;4.454;2023-05-07T13:04:06;18;98.9
7455;HTU21D;3769;51.208;4.454;2023-05-07T13:09:06;17.8;98.9
7455;HTU21D;3769;51.208;4.454;2023-05-07T13:14:06;18.1;99
7455;HTU21D;3769;51.208;4.454;2023-05-07T13:19:06;18.3;99
7455;HTU21D;3769;51.208;4.454;2023-05-07T13:24:06;18.6;99
7455;HTU21D;3769;51.208;4.454;2023-05-07T13:29:06;18.5;99
7455;HTU21D;3769;51.208;4.454;2023-05-07T13:34:06;18.3;99
7455;HTU21D;3769;51.208;4.454;2023-05-07T13:39:06;18.6;99
7455;HTU21D;3769;51.208;4.454;2023-05-07T13:44:06;18.6;99
7455;HTU21D;3769;51.208;4.454;2023-05-07T13:49:06;19;99.1
7455;HTU21D;3769;51.208;4.454;2023-05-07T13:54:06;18.7;99.1
7455;HTU21D;3769;51.208;4.454;2023-05-07T13:59:06;18.2;99
7455;HTU21D;3769;51.208;4.454;2023-05-07T14:04:06;18.3;99
7455;HTU21D;3769;51.208;4.454;2023-05-07T14:09:06;18.3;99
7455;HTU21D;3769;51.208;4.454;2023-05-07T14:14:06;18.3;99
7455;HTU21D;3769;51.208;4.454;2023-05-07T14:19:06;18.5;99
7455;HTU21D;3769;51.208;4.454;2023-05-07T14:24:06;18.7;99.1
7455;HTU21D;3769;51.208;4.454;2023-05-07T14:29:06;18.8;99.1
7455;HTU21D;3769;51.208;4.454;2023-05-07T14:34:06;19;99.1
7455;HTU21D;3769;51.208;4.454;2023-05-07T14:39:06;19;99.1
7455;HTU21D;3769;51.208;4.454;2023-05-07T14:44:06;18.9;99.1
7455;HTU21D;3769;51.208;4.454;2023-05-07T14:49:06;18.9;99.1
7455;HTU21D;3769;51.208;4.454;2023-05-07T14:54:06;19.2;99.1
7455;HTU21D;3769;51.208;4.454;2023-05-07T14:59:06;18.9;99.1
7455;HTU21D;3769;51.208;4.454;2023-05-07T15:04:06;19;99.1
7455;HTU21D;3769;51.208;4.454;2023-05-07T15:09:06;19.2;99.1
7455;HTU21D;3769;51.208;4.454;2023-05-07T15:14:06;19.1;99.1
7455;HTU21D;3769;51.208;4.454;2023-05-07T15:19:06;19.1;99.1
7455;HTU21D;3769;51.208;4.454;2023-05-07T15:24:06;19;99.1
7455;HTU21D;3769;51.208;4.454;2023-05-07T15:29:06;19.1;99.1
7455;HTU21D;3769;51.208;4.454;2023-05-07T15:34:06;18.9;99.1
7455;HTU21D;3769;51.208;4.454;2023-05-07T15:39:06;19;99.1
7455;HTU21D;3769;51.208;4.454;2023-05-07T15:44:06;19;99.1
7455;HTU21D;3769;51.208;4.454;2023-05-07T15:49:06;19;99.1
7455;HTU21D;3769;51.208;4.454;2023-05-07T15:54:06;18.9;99.1
7455;HTU21D;3769;51.208;4.454;2023-05-07T15:59:06;19;99.1
7455;HTU21D;3769;51.208;4.454;2023-05-07T16:04:06;18.8;99.1
7455;HTU21D;3769;51.208;4.454;2023-05-07T16:09:06;18.6;99
7455;HTU21D;3769;51.208;4.454;2023-05-07T16:14:06;18.8;99.1
7455;HTU21D;3769;51.208;4.454;2023-05-07T16:19:06;18.8;99.1
7455;HTU21D;3769;51.208;4.454;2023-05-07T16:24:06;18.9;99.1
7455;HTU21D;3769;51.208;4.454;2023-05-07T16:29:06;18.8;99.1
7455;HTU21D;3769;51.208;4.454;2023-05-07T16:34:06;18.8;99.1
7455;HTU21D;3769;51.208;4.454;2023-05-07T16:39:06;18.8;99.1
7455;HTU21D;3769;51.208;4.454;2023-05-07T16:44:06;18.7;99
7455;HTU21D;3769;51.208;4.454;2023-05-07T16:49:06;18.7;99
7455;HTU21D;3769;51.208;4.454;2023-05-07T16:54:06;18.5;99
7455;HTU21D;3769;51.208;4.454;2023-05-07T16:59:06;18.5;99
7455;HTU21D;3769;51.208;4.454;2023-05-07T17:04:07;18.5;99
7455;HTU21D;3769;51.208;4.454;2023-05-07T17:09:06;18.4;99
7455;HTU21D;3769;51.208;4.454;2023-05-07T17:14:06;18.3;99
7455;HTU21D;3769;51.208;4.454;2023-05-07T17:19:06;18.4;99
7455;HTU21D;3769;51.208;4.454;2023-05-07T17:24:06;18.3;99
7455;HTU21D;3769;51.208;4.454;2023-05-07T17:29:06;18.1;99
7455;HTU21D;3769;51.208;4.454;2023-05-07T17:34:06;18;99
7455;HTU21D;3769;51.208;4.454;2023-05-07T17:39:06;17.9;98.9
7455;HTU21D;3769;51.208;4.454;2023-05-07T17:44:06;17.9;98.9
7455;HTU21D;3769;51.208;4.454;2023-05-07T17:49:06;17.8;98.9
7455;HTU21D;3769;51.208;4.454;2023-05-07T17:54:07;17.7;98.9
7455;HTU21D;3769;51.208;4.454;2023-05-07T17:59:06;17.7;98.9
7455;HTU21D;3769;51.208;4.454;2023-05-07T18:04:07;17.6;98.9
7455;HTU21D;3769;51.208;4.454;2023-05-07T18:09:06;17.6;98.9
7455;HTU21D;3769;51.208;4.454;2023-05-07T18:14:06;17.5;98.9
7455;HTU21D;3769;51.208;4.454;2023-05-07T18:19:06;17.5;98.9
7455;HTU21D;3769;51.208;4.454;2023-05-07T18:24:06;17.3;98.8
7455;HTU21D;3769;51.208;4.454;2023-05-07T18:29:06;17.2;98.8
7455;HTU21D;3769;51.208;4.454;2023-05-07T18:34:06;17.1;98.8
7455;HTU21D;3769;51.208;4.454;2023-05-07T18:39:06;17.2;98.8
7455;HTU21D;3769;51.208;4.454;2023-05-07T18:44:06;17;98.8
7455;HTU21D;3769;51.208;4.454;2023-05-07T18:49:06;16.9;98.8
7455;HTU21D;3769;51.208;4.454;2023-05-07T18:54:06;16.9;98.8
7455;HTU21D;3769;51.208;4.454;2023-05-07T18:59:06;16.8;98.8
7455;HTU21D;3769;51.208;4.454;2023-05-07T19:04:06;16.7;98.8
7455;HTU21D;3769;51.208;4.454;2023-05-07T19:09:06;16.6;98.7
7455;HTU21D;3769;51.208;4.454;2023-05-07T19:14:06;16.6;98.7
7455;HTU21D;3769;51.208;4.454;2023-05-07T19:19:06;16.6;98.7
7455;HTU21D;3769;51.208;4.454;2023-05-07T19:24:06;16.7;98.8
7455;HTU21D;3769;51.208;4.454;2023-05-07T19:29:06;16.9;98.8
7455;HTU21D;3769;51.208;4.454;2023-05-07T19:34:06;17;98.8
7455;HTU21D;3769;51.208;4.454;2023-05-07T19:39:06;17.1;98.8
7455;HTU21D;3769;51.208;4.454;2023-05-07T19:44:06;17;98.8
7455;HTU21D;3769;51.208;4.454;2023-05-07T19:49:06;17.2;98.8
7455;HTU21D;3769;51.208;4.454;2023-05-07T19:54:07;17.6;98.9
7455;HTU21D;3769;51.208;4.454;2023-05-07T19:59:06;17.9;98.9
7455;HTU21D;3769;51.208;4.454;2023-05-07T20:04:06;17.8;98.9
7455;HTU21D;3769;51.208;4.454;2023-05-07T20:09:06;18;98.9
7455;HTU21D;3769;51.208;4.454;2023-05-07T20:14:06;18.4;99
7455;HTU21D;3769;51.208;4.454;2023-05-07T20:19:06;18.6;99
7455;HTU21D;3769;51.208;4.454;2023-05-07T20:24:06;18.5;99
7455;HTU21D;3769;51.208;4.454;2023-05-07T20:29:06;18.3;99
7455;HTU21D;3769;51.208;4.454;2023-05-07T20:34:06;18.5;99
7455;HTU21D;3769;51.208;4.454;2023-05-07T20:39:06;19.5;99.2
7455;HTU21D;3769;51.208;4.454;2023-05-07T20:44:06;20;99.3
7455;HTU21D;3769;51.208;4.454;2023-05-07T20:49:07;20.8;99.4
7455;HTU21D;3769;51.208;4.454;2023-05-07T20:54:06;21.3;99.4
7455;HTU21D;3769;51.208;4.454;2023-05-07T20:59:06;20.9;99.4
7455;HTU21D;3769;51.208;4.454;2023-05-07T21:04:07;19.7;99.2
7455;HTU21D;3769;51.208;4.454;2023-05-07T21:09:06;19.2;99.1
7455;HTU21D;3769;51.208;4.454;2023-05-07T21:14:06;18.6;99
7455;HTU21D;3769;51.208;4.454;2023-05-07T21:19:07;18;99
7455;HTU21D;3769;51.208;4.454;2023-05-07T21:24:06;17.6;98.9
7455;HTU21D;3769;51.208;4.454;2023-05-07T21:29:07;17.3;98.8
7455;HTU21D;3769;51.208;4.454;2023-05-07T21:34:06;17.2;98.8
7455;HTU21D;3769;51.208;4.454;2023-05-07T21:39:06;17.2;98.8
7455;HTU21D;3769;51.208;4.454;2023-05-07T21:44:06;17.3;98.8
7455;HTU21D;3769;51.208;4.454;2023-05-07T21:49:07;17.3;98.9
7455;HTU21D;3769;51.208;4.454;2023-05-07T21:54:06;17.3;98.8
7455;HTU21D;3769;51.208;4.454;2023-05-07T21:59:06;17.1;98.8
7455;HTU21D;3769;51.208;4.454;2023-05-07T22:04:07;17.2;98.8
7455;HTU21D;3769;51.208;4.454;2023-05-07T22:09:06;17.5;98.9
7455;HTU21D;3769;51.208;4.454;2023-05-07T22:14:06;17.7;98.9
7455;HTU21D;3769;51.208;4.454;2023-05-07T22:19:06;17.5;98.9
7455;HTU21D;3769;51.208;4.454;2023-05-07T22:24:06;17.4;98.9
7455;HTU21D;3769;51.208;4.454;2023-05-07T22:29:06;17.2;98.8
7455;HTU21D;3769;51.208;4.454;2023-05-07T22:34:06;17.3;98.8
7455;HTU21D;3769;51.208;4.454;2023-05-07T22:39:08;17.7;98.9
7455;HTU21D;3769;51.208;4.454;2023-05-07T22:44:06;18.5;99
7455;HTU21D;3769;51.208;4.454;2023-05-07T22:49:06;19.5;99.2
7455;HTU21D;3769;51.208;4.454;2023-05-07T22:54:06;20.5;99.3
7455;HTU21D;3769;51.208;4.454;2023-05-07T22:59:06;21.2;99.4
7455;HTU21D;3769;51.208;4.454;2023-05-07T23:04:06;21.2;99.4
7455;HTU21D;3769;51.208;4.454;2023-05-07T23:09:06;21.4;99.5
7455;HTU21D;3769;51.208;4.454;2023-05-07T23:14:07;20.8;99.4
7455;HTU21D;3769;51.208;4.454;2023-05-07T23:19:06;20.2;99.3
7455;HTU21D;3769;51.208;4.454;2023-05-07T23:24:07;19.6;99.2
7455;HTU21D;3769;51.208;4.454;2023-05-07T23:29:06;18.9;99.1
7455;HTU21D;3769;51.208;4.454;2023-05-07T23:34:06;18.4;99
7455;HTU21D;3769;51.208;4.454;2023-05-07T23:39:06;17.9;98.9
7455;HTU21D;3769;51.208;4.454;2023-05-07T23:44:06;17.8;98.9
7455;HTU21D;3769;51.208;4.454;2023-05-07T23:49:06;17.8;98.9
7455;HTU21D;3769;51.208;4.454;2023-05-07T23:54:06;17.9;98.9
7455;HTU21D;3769;51.208;4.454;2023-05-07T23:59:06;17.9;98.9
